Time;durP1;ratioP1;P1;durP2;ratioP2;P2;SDS_P1;SDS_P2;PMS_P1;PMS_P2;Temp;Humidity;BMP_temperature;BMP_pressure;BME280_temperature;BME280_humidity;BME280_pressure;Samples;Min_cycle;Max_cycle;Signal;HPM_P1;HPM_P2
2023/10/05 00:02:10;;;;;;;6.35;1.60;;;;;;;14.26;89.87;101194.88;4992429;28;20116;-44
2023/10/05 00:04:42;;;;;;;4.88;1.55;;;;;;;14.27;89.88;101199.28;4992101;28;20500;-43
2023/10/05 00:07:27;;;;;;;5.55;1.60;;;;;;;14.27;90.11;101199.28;4990729;28;20042;-45
2023/10/05 00:09:56;;;;;;;2.65;1.20;;;;;;;14.29;90.12;101201.72;4990507;28;20066;-43
2023/10/05 00:12:24;;;;;;;4.05;1.85;;;;;;;14.27;90.30;101190.91;4989543;28;20038;-42
2023/10/05 00:15:09;;;;;;;6.93;1.55;;;;;;;14.27;90.58;101201.28;4990267;28;20101;-43
2023/10/05 00:17:39;;;;;;;7.82;1.55;;;;;;;14.25;90.67;101200.81;4998310;28;20054;-43
2023/10/05 00:20:34;;;;;;;6.32;2.25;;;;;;;14.23;91.22;101201.16;4990198;28;20052;-43
2023/10/05 00:23:03;;;;;;;5.57;1.40;;;;;;;14.22;91.44;101204.28;4989080;28;20042;-45
2023/10/05 00:25:33;;;;;;;4.47;1.70;;;;;;;14.21;91.47;101202.69;4992057;28;20046;-43
2023/10/05 00:28:07;;;;;;;5.53;1.65;;;;;;;14.20;91.81;101206.63;4991864;28;20046;-43
2023/10/05 00:30:35;;;;;;;7.57;1.50;;;;;;;14.18;92.11;101203.41;4991572;28;20485;-43
2023/10/05 00:33:04;;;;;;;5.07;1.90;;;;;;;14.18;92.42;101197.84;4990835;28;20043;-43
2023/10/05 00:35:36;;;;;;;6.05;1.30;;;;;;;14.16;92.49;101205.75;4991196;28;20078;-42
2023/10/05 00:38:14;;;;;;;;;;;;;;;14.14;93.01;101202.53;4992203;28;20507;-43
2023/10/05 00:40:56;;;;;;;4.65;1.02;;;;;;;14.10;92.64;101207.16;4990652;28;20032;-43
2023/10/05 00:43:24;;;;;;;5.95;1.48;;;;;;;14.08;93.12;101199.19;4989632;28;20065;-42
2023/10/05 00:45:53;;;;;;;6.95;2.28;;;;;;;14.07;93.42;101202.31;4991681;28;20050;-44
2023/10/05 00:51:23;;;;;;;4.47;1.25;;;;;;;14.04;93.75;101199.09;4990507;28;20235;-43
2023/10/05 00:53:47;;;;;;;;;;;;;;;14.02;94.45;101197.81;4989695;28;20109;-44
2023/10/05 00:56:18;;;;;;;1.92;1.27;;;;;;;13.99;94.00;101193.78;4990359;28;19929;-47
2023/10/05 00:58:47;;;;;;;2.50;1.23;;;;;;;13.99;94.21;101204.09;4991099;28;20555;-45
2023/10/05 01:01:22;;;;;;;4.45;1.30;;;;;;;13.98;94.48;101196.91;4991267;28;20046;-42
2023/10/05 01:06:45;;;;;;;5.53;1.13;;;;;;;13.97;94.99;101192.53;4990570;28;20369;-43
2023/10/05 01:09:22;;;;;;;2.22;1.05;;;;;;;13.96;95.41;101194.50;4989500;28;20050;-44
2023/10/05 01:11:54;;;;;;;2.53;0.88;;;;;;;13.95;95.41;101187.28;4991252;28;20055;-43
2023/10/05 01:14:27;;;;;;;;;;;;;;;13.94;95.94;101193.25;4991068;28;20137;-42
2023/10/05 01:16:54;;;;;;;2.45;1.13;;;;;;;13.93;95.49;101189.63;4990691;28;20368;-42
2023/10/05 01:19:21;;;;;;;4.63;1.30;;;;;;;13.93;95.81;101183.25;4990851;28;20074;-42
2023/10/05 01:21:51;;;;;;;3.72;1.05;;;;;;;13.93;95.84;101191.59;4989055;28;20046;-42
2023/10/05 01:24:23;;;;;;;3.22;1.10;;;;;;;13.92;96.31;101196.38;4988113;28;20048;-43
2023/10/05 01:26:50;;;;;;;2.72;0.68;;;;;;;13.93;96.36;101191.59;4990303;28;20034;-43
2023/10/05 01:29:17;;;;;;;2.60;1.10;;;;;;;13.92;96.62;101190.81;4991067;28;20046;-42
2023/10/05 01:31:43;;;;;;;3.55;1.10;;;;;;;13.92;96.80;101190.81;4990883;28;20057;-44
2023/10/05 01:34:10;;;;;;;7.82;1.23;;;;;;;13.93;97.13;101192.41;4989778;28;20101;-45
2023/10/05 01:36:37;;;;;;;2.33;0.98;;;;;;;13.93;97.13;101194.38;4990794;28;20045;-43
2023/10/05 01:39:08;;;;;;;2.28;1.23;;;;;;;13.93;97.31;101195.22;4989568;28;20140;-47
2023/10/05 01:41:37;;;;;;;1.05;0.68;;;;;;;13.92;97.47;101179.69;4991099;28;20050;-47
2023/10/05 01:44:05;;;;;;;2.55;0.65;;;;;;;13.92;97.38;101182.47;4989088;28;20038;-43
2023/10/05 01:46:36;;;;;;;4.25;0.73;;;;;;;13.92;97.62;101181.66;4990387;28;20053;-43
2023/10/05 01:49:04;;;;;;;3.23;0.90;;;;;;;13.91;97.72;101178.06;4990425;28;20045;-42
2023/10/05 01:51:31;;;;;;;1.98;0.82;;;;;;;13.89;98.06;101174.84;4989124;28;20046;-43
2023/10/05 01:54:16;;;;;;;4.85;1.98;;;;;;;13.91;98.10;101178.06;4988410;28;20046;-43
2023/10/05 01:56:47;;;;;;;3.00;0.77;;;;;;;13.89;98.07;101177.63;4990713;28;20065;-44
2023/10/05 01:59:14;;;;;;;3.42;0.80;;;;;;;13.90;98.19;101181.19;4990469;28;20050;-44
2023/10/05 02:01:40;;;;;;;1.23;0.60;;;;;;;13.89;98.65;101176.81;4981525;28;20050;-43
2023/10/05 02:04:09;;;;;;;3.08;0.60;;;;;;;13.89;98.66;101174.84;4970145;28;20066;-43
2023/10/05 02:06:40;;;;;;;0.95;0.55;;;;;;;13.89;98.74;101174.84;4969010;28;20051;-43
2023/10/05 02:09:11;;;;;;;0.90;0.52;;;;;;;13.89;98.68;101166.47;4971384;28;20057;-43
2023/10/05 02:11:38;;;;;;;0.40;0.30;;;;;;;13.88;98.95;101167.63;4971092;28;20039;-43
2023/10/05 02:14:06;;;;;;;2.05;0.35;;;;;;;13.88;98.97;101159.28;4968185;28;20427;-43
2023/10/05 02:16:33;;;;;;;1.13;0.70;;;;;;;13.87;99.29;101163.22;4970327;28;20129;-42
2023/10/05 02:19:04;;;;;;;2.42;0.65;;;;;;;13.85;99.47;101160.00;4970533;28;20436;-43
2023/10/05 02:21:37;;;;;;;2.22;0.60;;;;;;;13.85;99.69;101161.97;4970120;28;20149;-43
2023/10/05 02:24:18;;;;;;;3.35;0.60;;;;;;;13.83;99.76;101159.56;4969457;28;20133;-45
2023/10/05 02:27:26;;;;;;;0.40;0.40;;;;;;;13.82;99.81;101171.84;4969969;28;20097;-43
2023/10/05 02:29:43;;;;;;;1.48;0.40;;;;;;;13.82;100.00;101169.06;4968346;28;20055;-44
2023/10/05 02:32:14;;;;;;;1.58;0.50;;;;;;;13.81;99.97;101161.88;4953204;28;20493;-43
2023/10/05 02:35:02;;;;;;;2.70;0.70;;;;;;;13.80;100.00;101163.03;4969062;28;20074;-43
2023/10/05 02:37:32;;;;;;;2.38;0.80;;;;;;;13.80;100.00;101165.00;4970378;28;20429;-46
2023/10/05 02:39:59;;;;;;;1.85;0.80;;;;;;;13.78;100.00;101173.72;4970484;28;20051;-42
2023/10/05 02:42:26;;;;;;;5.00;0.95;;;;;;;13.78;100.00;101165.38;4969870;28;20038;-44
2023/10/05 02:44:54;;;;;;;3.20;1.08;;;;;;;13.76;100.00;101162.16;4969800;28;20481;-43
2023/10/05 02:47:23;;;;;;;3.22;0.93;;;;;;;13.77;100.00;101171.28;4968701;28;20520;-43
2023/10/05 02:49:50;;;;;;;3.20;1.02;;;;;;;13.75;100.00;101168.06;4953879;28;20038;-43
2023/10/05 02:52:17;;;;;;;2.42;0.68;;;;;;;13.74;100.00;101160.91;4969706;28;20217;-44
2023/10/05 02:54:47;;;;;;;1.70;0.80;;;;;;;13.74;100.00;101169.25;4969259;28;20050;-43
2023/10/05 02:57:19;;;;;;;3.47;0.70;;;;;;;13.74;100.00;101158.09;4969943;28;20054;-44
2023/10/05 02:59:50;;;;;;;1.77;0.63;;;;;;;13.73;100.00;101162.06;4970334;28;20054;-44
2023/10/05 03:02:18;;;;;;;1.08;0.88;;;;;;;13.72;100.00;101157.63;5027555;23;20057;-44
2023/10/05 03:04:46;;;;;;;3.22;0.70;;;;;;;13.72;100.00;101147.31;5006851;28;20052;-44
2023/10/05 03:07:15;;;;;;;3.33;0.80;;;;;;;13.70;100.00;101148.84;5009232;28;20410;-44
2023/10/05 03:09:47;;;;;;;2.15;0.80;;;;;;;13.69;100.00;101150.81;5008738;28;20046;-44
2023/10/05 03:12:14;;;;;;;8.63;0.77;;;;;;;13.67;100.00;101139.22;5009292;28;20053;-44
2023/10/05 03:14:43;;;;;;;2.42;0.80;;;;;;;13.67;100.00;101133.66;5008474;28;20038;-44
2023/10/05 03:17:18;;;;;;;1.50;1.20;;;;;;;13.66;100.00;101134.81;5008868;28;20069;-44
2023/10/05 03:19:46;;;;;;;2.15;0.63;;;;;;;13.65;100.00;101129.63;5009516;28;20092;-44
2023/10/05 03:22:13;;;;;;;4.15;0.80;;;;;;;13.64;100.00;101126.03;5009576;28;20045;-44
2023/10/05 03:24:47;;;;;;;1.52;0.75;;;;;;;13.64;100.00;101128.00;5008855;28;20049;-44
2023/10/05 03:27:16;;;;;;;4.03;1.13;;;;;;;13.62;100.00;101125.59;5009469;28;20072;-44
2023/10/05 03:29:46;;;;;;;1.48;0.82;;;;;;;13.61;100.00;101123.97;5008930;28;20057;-44
2023/10/05 03:32:13;;;;;;;2.92;0.88;;;;;;;13.58;100.00;101113.53;5009148;28;20443;-44
2023/10/05 03:34:53;;;;;;;2.60;0.80;;;;;;;13.56;100.00;101113.09;5008024;28;20444;-44
2023/10/05 03:37:20;;;;;;;3.05;1.00;;;;;;;13.57;100.00;101111.94;5009261;28;20050;-44
2023/10/05 03:42:23;;;;;;;3.42;0.80;;;;;;;13.53;100.00;101110.22;5009242;28;20484;-45
2023/10/05 03:45:00;;;;;;;2.00;0.95;;;;;;;13.52;100.00;101114.16;5007723;28;20157;-44
2023/10/05 03:47:27;;;;;;;4.30;1.17;;;;;;;13.51;100.00;101115.31;5021177;28;20066;-43
2023/10/05 03:49:55;;;;;;;3.20;0.90;;;;;;;13.50;100.00;101105.38;5008943;28;20609;-44
2023/10/05 03:52:29;;;;;;;3.22;0.90;;;;;;;13.49;99.94;101112.91;5009187;28;20565;-44
2023/10/05 03:55:09;;;;;;;2.40;0.82;;;;;;;13.47;99.76;101103.31;5007648;28;20053;-44
2023/10/05 03:57:41;;;;;;;2.15;0.80;;;;;;;13.44;99.55;101107.59;5009029;28;20383;-47
2023/10/05 04:02:52;;;;;;;6.72;1.70;;;;;;;13.40;99.39;101117.81;5008452;28;20061;-44
2023/10/05 04:05:21;;;;;;;5.35;1.13;;;;;;;13.36;99.26;101120.50;5007852;28;20050;-44
2023/10/05 04:07:50;;;;;;;8.25;1.58;;;;;;;13.36;99.10;101120.50;5008689;28;20056;-44
2023/10/05 04:10:46;;;;;;;3.20;1.00;;;;;;;13.36;98.94;101137.19;5009086;28;20088;-45
2023/10/05 04:13:24;;;;;;;3.92;1.60;;;;;;;13.33;98.87;101142.66;5005768;28;20044;-44
2023/10/05 04:15:51;;;;;;;6.72;1.38;;;;;;;13.31;98.67;101140.25;5008964;28;20038;-44
2023/10/05 04:18:21;;;;;;;7.32;1.65;;;;;;;13.29;98.76;101134.19;5008436;28;20052;-44
2023/10/05 04:20:48;;;;;;;5.30;1.30;;;;;;;13.31;98.65;101136.63;5008564;28;20042;-44
2023/10/05 04:23:25;;;;;;;2.85;0.90;;;;;;;13.28;98.92;101134.56;5007787;28;20073;-47
2023/10/05 04:25:56;;;;;;;4.30;1.02;;;;;;;13.28;98.77;101129.00;5008929;28;20030;-44
2023/10/05 04:28:32;;;;;;;3.78;1.30;;;;;;;13.28;98.56;101137.34;5008978;28;20050;-44
2023/10/05 04:31:00;;;;;;;5.05;1.30;;;;;;;13.25;98.72;101127.75;5011537;28;20133;-46
2023/10/05 04:33:28;;;;;;;4.15;1.00;;;;;;;13.24;98.80;101126.13;5011096;28;20500;-45
2023/10/05 04:35:55;;;;;;;3.90;1.27;;;;;;;13.24;99.13;101141.97;5010367;28;20053;-45
2023/10/05 04:38:25;;;;;;;2.85;1.00;;;;;;;13.23;99.29;101141.19;5011868;28;20048;-44
2023/10/05 04:40:52;;;;;;;4.18;1.45;;;;;;;13.23;99.38;101140.38;5011884;28;20125;-49
2023/10/05 04:43:21;;;;;;;4.72;1.02;;;;;;;13.21;99.27;101137.16;5011977;28;20141;-43
2023/10/05 04:45:50;;;;;;;2.90;1.40;;;;;;;13.20;99.57;101141.91;5011289;28;20124;-44
2023/10/05 04:48:18;;;;;;;3.03;0.82;;;;;;;13.18;99.69;101132.28;5011827;28;20042;-46
2023/10/05 04:50:49;;;;;;;7.13;1.90;;;;;;;13.18;99.84;101138.66;5012094;28;20100;-44
2023/10/05 04:53:17;;;;;;;3.92;1.27;;;;;;;13.16;99.96;101129.84;5012475;28;20034;-44
2023/10/05 04:55:45;;;;;;;3.10;1.13;;;;;;;13.14;100.00;101142.47;5010727;28;20057;-45
2023/10/05 04:58:21;;;;;;;4.68;1.13;;;;;;;13.13;100.00;101118.66;5011601;28;20042;-46
2023/10/05 05:00:53;;;;;;;5.45;1.45;;;;;;;13.11;100.00;101107.03;5011658;28;20116;-44
2023/10/05 05:04:13;;;;;;;3.05;1.10;;;;;;;13.12;100.00;101117.84;5011725;28;20056;-44
2023/10/05 05:06:13;;;;;;;2.45;0.80;;;;;;;13.09;100.00;101101.84;5000145;28;20480;-44
2023/10/05 05:08:40;;;;;;;7.45;1.23;;;;;;;13.09;99.88;101112.97;5011319;28;20380;-45
2023/10/05 05:11:18;;;;;;;4.55;0.80;;;;;;;13.09;99.85;101106.59;5011537;28;20073;-44
2023/10/05 05:13:46;;;;;;;5.00;1.40;;;;;;;13.09;99.72;101095.47;5010905;28;20049;-44
2023/10/05 05:16:16;;;;;;;9.88;1.23;;;;;;;13.06;99.68;101090.59;5010771;28;20038;-44
2023/10/05 05:18:43;;;;;;;6.38;1.20;;;;;;;13.05;99.35;101092.56;5011648;28;20041;-46
2023/10/05 05:21:11;;;;;;;3.70;1.80;;;;;;;13.06;99.41;101096.16;5011144;28;20398;-44
2023/10/05 05:23:42;;;;;;;2.58;1.30;;;;;;;13.05;99.10;101086.22;5011410;28;20041;-45
2023/10/05 05:26:11;;;;;;;4.00;0.90;;;;;;;13.03;98.89;101086.56;5011286;28;20050;-48
2023/10/05 05:28:43;;;;;;;5.80;0.85;;;;;;;13.05;99.03;101089.00;5009638;28;20053;-44
2023/10/05 05:31:16;;;;;;;3.00;1.00;;;;;;;13.03;98.72;101085.75;5010687;28;20042;-46
2023/10/05 05:33:45;;;;;;;3.08;0.80;;;;;;;13.03;98.52;101086.56;5011069;28;20407;-45
2023/10/05 05:36:13;;;;;;;3.03;0.75;;;;;;;13.04;98.33;101079.84;5010282;28;20449;-44
2023/10/05 05:38:41;;;;;;;3.40;1.35;;;;;;;13.03;98.30;101085.75;5010660;28;20064;-44
2023/10/05 05:41:15;;;;;;;3.00;1.05;;;;;;;13.04;98.13;101087.38;5010795;28;20069;-44
2023/10/05 05:43:43;;;;;;;5.00;1.20;;;;;;;13.04;98.18;101081.81;5010452;28;20049;-44
2023/10/05 05:46:13;;;;;;;2.20;1.15;;;;;;;13.04;97.97;101076.25;5009335;28;20046;-44
2023/10/05 05:48:48;;;;;;;2.75;0.60;;;;;;;13.03;97.92;101069.06;5010555;28;20038;-44
2023/10/05 05:51:15;;;;;;;2.85;0.60;;;;;;;13.03;97.72;101069.88;5011047;28;20054;-44
2023/10/05 05:53:43;;;;;;;5.10;1.45;;;;;;;13.04;97.70;101065.94;5008902;28;20038;-44
2023/10/05 05:56:20;;;;;;;9.95;2.55;;;;;;;13.05;97.41;101073.09;5009678;28;20050;-44
2023/10/05 05:58:47;;;;;;;8.20;1.95;;;;;;;13.03;97.51;101064.31;5010251;28;20030;-44
2023/10/05 06:01:14;;;;;;;2.50;0.90;;;;;;;13.03;97.34;101063.50;5008432;28;20522;-44
2023/10/05 06:03:48;;;;;;;4.00;0.95;;;;;;;13.04;97.36;101062.34;5009945;28;20172;-44
2023/10/05 06:06:16;;;;;;;3.30;0.80;;;;;;;13.04;97.51;101065.13;5008036;28;20121;-44
2023/10/05 06:08:44;;;;;;;2.88;0.80;;;;;;;13.03;97.47;101063.50;5010849;28;20143;-44
2023/10/05 06:11:14;;;;;;;5.82;0.90;;;;;;;13.04;97.34;101062.34;5009307;28;20058;-45
2023/10/05 06:13:45;;;;;;;4.30;1.10;;;;;;;13.04;97.22;101059.56;5008918;28;20045;-45
2023/10/05 06:16:13;;;;;;;5.55;1.05;;;;;;;13.04;97.36;101065.13;5009505;28;20034;-44
2023/10/05 06:18:43;;;;;;;2.95;0.88;;;;;;;13.03;97.34;101080.19;5009112;28;20056;-44
2023/10/05 06:21:11;;;;;;;2.78;1.05;;;;;;;13.04;97.54;101067.91;5009764;28;20042;-46
2023/10/05 06:23:40;;;;;;;3.05;0.90;;;;;;;13.03;97.40;101071.84;5009943;28;20054;-47
2023/10/05 06:26:07;;;;;;;6.40;1.33;;;;;;;13.02;97.55;101065.50;5010250;28;20041;-44
2023/10/05 06:28:34;;;;;;;5.40;1.13;;;;;;;13.02;97.81;101059.13;5009020;28;20049;-44
2023/10/05 06:31:01;;;;;;;4.57;0.98;;;;;;;13.02;97.86;101056.34;5010779;28;20038;-44
2023/10/05 06:33:28;;;;;;;5.72;0.88;;;;;;;13.02;97.88;101056.34;5009795;28;20042;-44
2023/10/05 06:35:55;;;;;;;4.63;0.82;;;;;;;13.01;97.77;101052.75;5009981;28;20050;-51
2023/10/05 06:38:23;;;;;;;1.92;0.80;;;;;;;13.00;97.97;101045.56;5009622;28;20046;-43
2023/10/05 06:40:49;;;;;;;4.10;1.20;;;;;;;13.00;98.22;101034.44;5009336;28;20086;-44
2023/10/05 06:43:16;;;;;;;7.32;1.35;;;;;;;13.00;98.13;101028.88;5009962;28;20068;-45
2023/10/05 06:45:44;;;;;;;11.02;2.33;;;;;;;13.03;98.15;101046.81;5009854;28;20053;-45
2023/10/05 06:48:11;;;;;;;2.78;0.95;;;;;;;13.03;98.03;101049.59;5009850;28;20046;-46
2023/10/05 06:50:38;;;;;;;8.68;1.77;;;;;;;13.04;98.14;101045.66;5007462;28;20134;-45
2023/10/05 06:53:07;;;;;;;5.30;0.98;;;;;;;13.06;98.06;101060.00;5008677;28;20041;-45
2023/10/05 06:55:34;;;;;;;4.82;1.17;;;;;;;13.07;98.04;101067.22;5009289;28;20060;-45
2023/10/05 06:58:03;;;;;;;3.97;1.15;;;;;;;13.08;98.34;101071.66;5009495;28;20073;-47
2023/10/05 07:00:31;;;;;;;2.35;0.90;;;;;;;13.07;98.33;101064.47;5008969;28;20074;-47
2023/10/05 07:02:58;;;;;;;5.40;1.00;;;;;;;13.08;98.12;101054.97;5008604;28;20060;-46
2023/10/05 07:05:28;;;;;;;3.33;1.10;;;;;;;13.10;97.99;101038.72;4995640;28;20058;-48
2023/10/05 07:07:56;;;;;;;3.95;1.77;;;;;;;13.10;97.74;101056.22;5007174;28;20050;-47
2023/10/05 07:10:23;;;;;;;4.00;2.13;;;;;;;13.12;97.62;101055.84;5008014;28;20046;-45
2023/10/05 07:12:50;;;;;;;4.70;1.15;;;;;;;13.12;97.52;101056.66;5007372;28;20562;-45
2023/10/05 07:15:17;;;;;;;4.50;1.30;;;;;;;13.16;97.30;101059.53;5007275;28;20096;-46
2023/10/05 07:17:47;;;;;;;5.03;0.77;;;;;;;13.15;97.12;101052.38;5008620;28;20049;-46
2023/10/05 07:20:17;;;;;;;5.93;1.08;;;;;;;13.18;96.98;101057.22;5009295;28;20111;-45
2023/10/05 07:22:46;;;;;;;1.23;0.90;;;;;;;13.20;96.78;101064.06;5009036;28;20518;-46
2023/10/05 07:25:23;;;;;;;10.40;2.08;;;;;;;13.22;96.55;101056.16;5008846;28;20073;-46
2023/10/05 07:27:51;;;;;;;3.00;1.15;;;;;;;13.25;96.37;101054.63;5006869;28;20647;-46
2023/10/05 07:30:17;;;;;;;2.15;0.70;;;;;;;13.27;96.39;101066.19;5007325;28;20050;-44
2023/10/05 07:32:44;;;;;;;6.57;1.17;;;;;;;13.30;96.10;101062.72;5008061;28;20092;-45
2023/10/05 07:35:23;;;;;;;4.80;1.35;;;;;;;13.31;96.13;101050.44;5009015;28;20080;-43
2023/10/05 07:37:51;;;;;;;6.00;1.27;;;;;;;13.31;96.11;101051.25;5007589;28;20467;-44
2023/10/05 07:40:18;;;;;;;4.55;1.00;;;;;;;13.33;95.94;101056.44;5004729;28;20105;-43
2023/10/05 07:42:46;;;;;;;4.25;1.30;;;;;;;13.35;96.05;101076.34;5006788;28;20137;-44
2023/10/05 07:45:13;;;;;;;3.40;1.30;;;;;;;13.35;96.05;101076.34;5006946;28;20104;-44
2023/10/05 07:47:44;;;;;;;4.57;1.20;;;;;;;13.33;96.20;101082.28;5008796;28;20037;-43
2023/10/05 07:50:12;;;;;;;7.73;1.73;;;;;;;13.32;96.47;101079.84;5008100;28;20042;-43
2023/10/05 07:52:48;;;;;;;1.77;1.33;;;;;;;13.30;96.34;101068.28;5008687;28;20525;-45
2023/10/05 07:55:15;;;;;;;4.30;1.48;;;;;;;13.29;96.77;101072.25;5008515;28;20048;-45
2023/10/05 07:57:43;;;;;;;2.15;1.95;;;;;;;13.27;97.13;101074.53;5008830;28;20045;-44
2023/10/05 08:00:12;;;;;;;7.55;2.30;;;;;;;13.27;97.32;101046.72;5007302;28;20045;-47
2023/10/05 08:02:41;;;;;;;1.92;1.10;;;;;;;13.27;97.42;101041.19;5007654;28;20084;-44
2023/10/05 08:05:12;;;;;;;3.58;1.05;;;;;;;13.27;97.46;101030.88;5012232;28;20057;-43
2023/10/05 08:07:40;;;;;;;6.38;2.63;;;;;;;13.28;97.48;101031.69;5013007;28;20041;-44
2023/10/05 08:10:21;;;;;;;2.30;1.15;;;;;;;13.28;97.71;101020.56;5011364;28;20050;-44
2023/10/05 08:12:50;;;;;;;2.45;0.70;;;;;;;13.29;97.58;101022.97;5011476;28;20057;-44
2023/10/05 08:15:21;;;;;;;1.90;0.93;;;;;;;13.30;97.98;101024.59;5011630;28;20049;-43
2023/10/05 08:17:49;;;;;;;4.60;0.73;;;;;;;13.31;97.81;101026.22;5011776;28;20053;-43
2023/10/05 08:20:20;;;;;;;1.08;0.55;;;;;;;13.32;97.82;101010.31;5011190;28;20073;-43
2023/10/05 08:22:56;;;;;;;2.85;0.50;;;;;;;13.34;97.73;101021.91;5010107;28;20042;-50
2023/10/05 08:25:23;;;;;;;3.42;0.55;;;;;;;13.33;97.56;101028.63;5013021;28;20041;-43
2023/10/05 08:27:51;;;;;;;5.30;0.98;;;;;;;13.35;97.53;101034.63;5007940;28;20057;-44
2023/10/05 08:30:19;;;;;;;2.40;0.50;;;;;;;13.36;97.56;101050.19;5010022;28;20069;-44
2023/10/05 08:32:48;;;;;;;2.03;0.85;;;;;;;13.38;97.33;101047.84;5011573;28;20092;-44
2023/10/05 08:35:19;;;;;;;2.03;1.00;;;;;;;13.40;97.60;101048.28;5011283;28;20049;-44
2023/10/05 08:37:53;;;;;;;2.88;0.85;;;;;;;13.42;97.36;101054.31;5011676;28;20060;-44
2023/10/05 08:43:10;;;;;;;2.90;1.00;;;;;;;13.48;97.31;101000.03;5010294;28;20176;-44
2023/10/05 08:45:49;;;;;;;1.77;0.80;;;;;;;13.50;97.10;100994.94;5010360;28;20058;-44
2023/10/05 08:48:28;;;;;;;0.98;0.68;;;;;;;13.51;97.03;100985.41;5011177;28;20452;-43
2023/10/05 08:51:11;;;;;;;1.08;0.57;;;;;;;13.52;97.05;100975.91;5010483;28;20052;-43
2023/10/05 08:53:43;;;;;;;1.02;0.60;;;;;;;13.53;97.10;100982.28;5011829;28;20071;-43
2023/10/05 08:56:15;;;;;;;1.50;0.98;;;;;;;13.54;97.19;100973.56;5011281;28;20136;-44
2023/10/05 08:58:47;;;;;;;1.23;0.88;;;;;;;13.57;97.51;100995.09;5011054;28;20510;-43
2023/10/05 09:01:31;;;;;;;2.20;0.82;;;;;;;13.58;97.28;100991.13;5011300;28;20132;-47
2023/10/05 09:04:23;;;;;;;1.08;0.65;;;;;;;13.62;97.63;100991.22;5011179;28;20511;-45
2023/10/05 09:06:55;;;;;;;1.60;0.80;;;;;;;13.66;97.64;100981.78;5010427;28;20046;-44
2023/10/05 09:09:51;;;;;;;1.00;0.60;;;;;;;13.70;97.58;100968.78;5011250;28;20558;-46
2023/10/05 09:12:32;;;;;;;1.27;0.63;;;;;;;13.73;97.65;100959.72;5007771;28;20049;-43
2023/10/05 09:15:27;;;;;;;1.17;0.85;;;;;;;13.77;97.95;100957.00;5008082;28;20042;-47
2023/10/05 09:18:05;;;;;;;1.63;0.50;;;;;;;13.80;98.10;100965.47;5010152;28;20049;-44
2023/10/05 09:20:38;;;;;;;1.10;0.93;;;;;;;13.87;98.07;100967.63;5009176;28;20141;-48
2023/10/05 09:23:07;;;;;;;1.13;0.90;;;;;;;13.91;98.25;100972.09;5011464;28;20040;-45
2023/10/05 09:25:39;;;;;;;2.33;0.63;;;;;;;13.97;98.20;100967.84;5007033;28;20488;-43
2023/10/05 09:28:16;;;;;;;0.65;0.60;;;;;;;14.03;98.04;100974.75;5009198;28;20483;-46
2023/10/05 09:30:56;;;;;;;3.00;0.70;;;;;;;14.06;98.06;100966.84;5008407;28;20503;-46
2023/10/05 09:33:36;;;;;;;1.05;0.57;;;;;;;14.07;98.18;100954.53;5010493;28;20399;-44
2023/10/05 09:36:20;;;;;;;1.10;0.75;;;;;;;14.08;98.31;100958.94;5008820;28;20561;-44
2023/10/05 09:38:47;;;;;;;1.48;0.57;;;;;;;14.11;98.49;100961.00;5011536;28;20467;-44
2023/10/05 09:41:19;;;;;;;1.25;0.77;;;;;;;14.15;98.60;100951.53;5009669;28;20045;-44
2023/10/05 09:44:07;;;;;;;3.50;1.00;;;;;;;14.21;98.82;100963.22;5009426;28;20059;-45
2023/10/05 09:46:36;;;;;;;3.53;0.60;;;;;;;14.23;98.72;100966.44;5007105;28;20049;-45
2023/10/05 09:49:07;;;;;;;1.42;0.50;;;;;;;14.26;98.66;100974.88;5008114;28;20038;-44
2023/10/05 09:51:35;;;;;;;2.28;1.05;;;;;;;14.30;98.73;100972.16;5008111;28;20060;-44
2023/10/05 09:54:08;;;;;;;3.20;0.70;;;;;;;14.32;98.89;100969.84;5009519;28;20476;-44
2023/10/05 09:56:41;;;;;;;5.32;0.80;;;;;;;14.36;98.89;100965.16;5007699;28;20056;-45
2023/10/05 09:59:18;;;;;;;1.00;0.65;;;;;;;14.39;98.98;100958.84;5009408;28;20380;-44
2023/10/05 10:01:48;;;;;;;2.13;1.23;;;;;;;14.41;98.75;100950.94;5008312;28;20543;-44
2023/10/05 10:04:35;;;;;;;2.38;0.90;;;;;;;14.43;98.68;100938.25;5010513;28;20045;-45
2023/10/05 10:07:22;;;;;;;2.83;1.25;;;;;;;14.47;98.59;100938.34;5008743;28;20044;-45
2023/10/05 10:09:54;;;;;;;4.10;1.10;;;;;;;14.51;98.58;100939.19;5009708;28;20438;-44
2023/10/05 10:12:26;;;;;;;1.60;0.95;;;;;;;14.54;98.40;100956.00;5007532;28;20400;-48
2023/10/05 10:14:58;;;;;;;4.10;1.35;;;;;;;14.56;98.27;100967.56;5010109;28;20052;-45
2023/10/05 10:17:32;;;;;;;3.83;1.20;;;;;;;14.59;98.27;100957.69;5009864;28;20062;-44
2023/10/05 10:20:28;;;;;;;4.75;1.52;;;;;;;14.60;98.30;100906.34;5009289;28;20045;-45
2023/10/05 10:22:55;;;;;;;1.67;1.38;;;;;;;14.61;98.26;100889.25;5009517;28;20042;-44
2023/10/05 10:25:30;;;;;;;6.10;1.75;;;;;;;14.65;98.65;100939.50;5007650;28;20050;-45
2023/10/05 10:31:17;;;;;;;7.65;1.30;;;;;;;14.74;98.42;100903.84;5008409;28;20060;-44
2023/10/05 10:33:51;;;;;;;4.57;1.13;;;;;;;14.77;98.46;100908.69;5010088;28;20034;-46
2023/10/05 10:36:39;;;;;;;1.70;1.10;;;;;;;14.79;98.56;100909.13;5006713;28;20052;-44
2023/10/05 10:39:22;;;;;;;3.80;1.35;;;;;;;14.78;98.67;100893.56;5008136;28;20671;-44
2023/10/05 10:41:54;;;;;;;2.47;1.10;;;;;;;14.78;98.77;100904.72;5007817;28;20045;-44
2023/10/05 10:44:23;;;;;;;2.92;0.90;;;;;;;14.76;99.09;100898.72;5006315;28;20056;-45
2023/10/05 10:47:05;;;;;;;1.80;0.90;;;;;;;14.75;99.26;100887.91;5007149;28;20555;-44
2023/10/05 10:49:32;;;;;;;3.38;0.57;;;;;;;14.75;99.27;100877.56;5010123;28;20056;-44
2023/10/05 10:52:02;;;;;;;3.03;0.82;;;;;;;14.78;99.56;100879.63;5008429;28;20049;-44
2023/10/05 10:54:33;;;;;;;1.73;0.93;;;;;;;14.80;99.88;100876.50;5007750;28;20038;-44
2023/10/05 10:57:00;;;;;;;1.88;1.27;;;;;;;14.83;99.99;100896.03;5007464;28;20408;-44
2023/10/05 10:59:30;;;;;;;3.22;1.00;;;;;;;14.86;100.00;100884.16;5008184;28;20085;-44
2023/10/05 11:02:10;;;;;;;4.43;1.23;;;;;;;14.90;100.00;100878.66;5006949;28;20080;-44
2023/10/05 11:04:39;;;;;;;2.80;0.70;;;;;;;14.93;100.00;100873.13;5007866;28;20041;-45
2023/10/05 11:07:26;;;;;;;1.25;0.60;;;;;;;14.99;100.00;100873.63;5008441;28;20042;-44
2023/10/05 11:09:53;;;;;;;1.08;0.50;;;;;;;15.05;100.00;100869.34;5008737;28;20172;-44
2023/10/05 11:12:23;;;;;;;3.05;0.70;;;;;;;15.14;100.00;100870.69;5009874;28;20081;-44
2023/10/05 11:15:00;;;;;;;2.40;0.57;;;;;;;15.24;99.81;100856.16;5010627;28;20046;-44
2023/10/05 11:17:43;;;;;;;1.98;0.90;;;;;;;15.34;99.56;100871.44;5007852;28;20046;-44
2023/10/05 11:20:33;;;;;;;1.45;0.45;;;;;;;15.43;99.27;100862.81;5007851;28;20073;-44
2023/10/05 11:23:10;;;;;;;2.70;0.63;;;;;;;15.50;99.14;100874.09;5008261;28;20088;-45
2023/10/05 11:25:44;;;;;;;2.35;0.40;;;;;;;15.55;99.25;100832.72;5007746;28;20056;-46
2023/10/05 11:28:25;;;;;;;2.00;0.80;;;;;;;15.64;98.98;100836.06;5006806;28;20060;-45
2023/10/05 11:30:53;;;;;;;4.78;0.55;;;;;;;15.70;99.19;100847.72;5007864;28;20731;-45
2023/10/05 11:33:41;;;;;;;0.60;0.60;;;;;;;15.79;99.02;100837.88;5005952;28;20056;-46
2023/10/05 11:36:28;;;;;;;1.88;0.60;;;;;;;15.91;98.90;100848.00;5005750;28;20309;-45
2023/10/05 11:38:57;;;;;;;4.18;1.13;;;;;;;15.97;98.85;100862.41;5011020;28;20052;-44
2023/10/05 11:41:29;;;;;;;3.45;0.70;;;;;;;16.04;98.87;100859.75;5011690;28;20064;-44
2023/10/05 11:43:56;;;;;;;2.50;1.38;;;;;;;16.13;98.64;100854.66;5012653;28;20056;-43
2023/10/05 11:46:29;;;;;;;2.25;0.40;;;;;;;16.18;98.58;100849.53;5011368;28;20057;-44
2023/10/05 11:48:57;;;;;;;0.73;0.40;;;;;;;16.17;98.37;100845.16;5013284;28;20053;-44
2023/10/05 11:51:42;;;;;;;1.17;0.50;;;;;;;16.16;98.32;100839.94;5011817;28;20135;-44
2023/10/05 11:54:10;;;;;;;1.17;0.40;;;;;;;16.14;98.35;100848.69;5011988;28;20083;-45
2023/10/05 11:56:41;;;;;;;1.65;1.00;;;;;;;16.15;98.43;100832.75;5012452;28;20048;-44
2023/10/05 11:59:11;;;;;;;6.03;0.90;;;;;;;16.18;98.59;100838.34;5011328;28;20042;-44
2023/10/05 12:01:40;;;;;;;0.45;0.25;;;;;;;16.21;98.37;100825.63;5010475;28;20078;-44
2023/10/05 12:04:08;;;;;;;4.65;0.65;;;;;;;16.24;98.10;100836.03;5012496;28;20088;-44